createdAt,value
2019-05-01T00:00:50.862Z,39.53
2019-05-01T00:03:28.598Z,39.07
2019-05-01T00:05:59.749Z,37.97
2019-05-01T00:08:32.130Z,39.40
2019-05-01T00:11:01.718Z,38.93
2019-05-01T00:13:32.834Z,37.30
2019-05-01T00:16:02.294Z,38.83
2019-05-01T00:18:31.854Z,37.43
2019-05-01T00:21:01.673Z,38.73
2019-05-01T00:23:31.173Z,37.53
2019-05-01T00:26:00.696Z,38.60
2019-05-01T00:28:30.266Z,38.57
2019-05-01T00:30:59.862Z,37.67
2019-05-01T00:33:29.402Z,36.50
2019-05-01T00:35:58.881Z,36.70
2019-05-01T00:38:28.401Z,38.73
2019-05-01T00:40:57.885Z,40.33
2019-05-01T00:43:27.353Z,37.43
2019-05-01T00:45:56.828Z,38.87
2019-05-01T00:48:26.350Z,38.67
2019-05-01T00:50:55.919Z,38.30
2019-05-01T00:53:25.389Z,40.07
2019-05-01T00:56:11.499Z,39.33
2019-05-01T00:59:00.959Z,39.13
2019-05-01T01:01:32.023Z,37.23
2019-05-01T01:04:01.526Z,37.40
2019-05-01T01:06:31.045Z,37.53
2019-05-01T01:09:00.655Z,38.03
2019-05-01T01:11:31.718Z,37.83
2019-05-01T01:14:01.176Z,38.70
2019-05-01T01:16:30.697Z,40.00
2019-05-01T01:19:00.119Z,37.97
2019-05-01T01:21:29.561Z,37.37
2019-05-01T01:23:59.328Z,38.00
2019-05-01T01:26:29.027Z,37.30
2019-05-01T01:28:58.593Z,38.57
2019-05-01T01:31:28.122Z,38.33
2019-05-01T01:33:58.687Z,38.57
2019-05-01T01:36:28.133Z,38.23
2019-05-01T01:38:57.719Z,38.33
2019-05-01T01:41:27.285Z,38.37
2019-05-01T01:44:01.247Z,38.17
2019-05-01T01:46:32.488Z,37.73
2019-05-01T01:49:02.061Z,39.67
2019-05-01T01:51:31.756Z,37.93
2019-05-01T01:54:02.396Z,36.97
2019-05-01T01:56:32.881Z,35.40
2019-05-01T01:59:02.636Z,37.87
2019-05-01T02:01:42.902Z,37.47
2019-05-01T02:04:20.628Z,36.30
2019-05-01T02:06:50.749Z,36.93
2019-05-01T02:09:20.280Z,36.50
2019-05-01T02:11:49.885Z,37.40
2019-05-01T02:14:19.368Z,36.87
2019-05-01T02:16:49.962Z,35.30
2019-05-01T02:19:19.380Z,35.20
2019-05-01T02:21:48.975Z,33.40
2019-05-01T02:24:18.475Z,33.87
2019-05-01T02:26:52.588Z,33.47
2019-05-01T02:29:27.322Z,33.50
2019-05-01T02:31:58.399Z,32.37
2019-05-01T02:34:29.269Z,31.27
2019-05-01T02:37:03.953Z,31.77
2019-05-01T02:39:35.515Z,31.00
2019-05-01T02:42:06.410Z,28.13
2019-05-01T02:44:42.031Z,32.73
2019-05-01T02:47:14.545Z,32.43
2019-05-01T02:49:52.765Z,31.17
2019-05-01T02:52:25.643Z,31.73
2019-05-01T02:54:58.329Z,31.63
2019-05-01T02:57:28.587Z,29.73
2019-05-01T02:59:59.915Z,31.27
2019-05-01T03:02:30.567Z,31.23
2019-05-01T03:05:01.156Z,31.47
2019-05-01T03:07:34.256Z,31.70
2019-05-01T03:10:08.942Z,31.57
2019-05-01T03:12:39.335Z,29.97
2019-05-01T03:15:09.893Z,32.37
2019-05-01T03:17:47.590Z,30.80
2019-05-01T03:20:35.424Z,32.17
2019-05-01T03:23:16.199Z,31.30
2019-05-01T03:25:45.859Z,29.90
2019-05-01T03:28:15.442Z,31.33
2019-05-01T03:30:45.038Z,31.30
2019-05-01T03:33:14.551Z,32.47
2019-05-01T03:35:44.411Z,30.27
2019-05-01T03:38:14.200Z,30.47
2019-05-01T03:40:43.748Z,29.53
2019-05-01T03:43:13.627Z,29.60
2019-05-01T03:45:43.903Z,31.23
2019-05-01T03:48:13.697Z,30.17
2019-05-01T03:50:46.465Z,30.70
2019-05-01T03:53:14.676Z,30.87
2019-05-01T03:55:44.169Z,30.53
2019-05-01T03:58:14.241Z,31.60
2019-05-01T04:01:01.896Z,29.47
2019-05-01T04:03:45.337Z,31.00
2019-05-01T04:06:14.929Z,30.00
2019-05-01T04:08:44.947Z,28.80
2019-05-01T04:11:14.718Z,29.73
2019-05-01T04:13:44.437Z,30.70
2019-05-01T04:16:14.680Z,29.63
2019-05-01T04:18:44.349Z,30.67
2019-05-01T04:21:13.836Z,31.60
2019-05-01T04:23:43.611Z,31.77
2019-05-01T04:26:13.190Z,32.33
2019-05-01T04:28:50.534Z,31.70
2019-05-01T04:31:32.341Z,31.70
2019-05-01T04:34:06.228Z,32.07
2019-05-01T04:36:47.918Z,32.90
2019-05-01T04:39:17.636Z,32.60
2019-05-01T04:41:47.424Z,32.30
2019-05-01T04:44:17.698Z,31.60
2019-05-01T04:46:47.264Z,33.47
2019-05-01T04:49:18.177Z,32.10
2019-05-01T04:51:48.080Z,34.30
2019-05-01T04:54:17.678Z,32.67
2019-05-01T04:56:48.050Z,33.87
2019-05-01T04:59:17.710Z,34.30
2019-05-01T05:02:02.044Z,33.37
2019-05-01T05:04:32.003Z,32.40
2019-05-01T05:07:01.566Z,32.37
2019-05-01T05:09:45.413Z,33.17
2019-05-01T05:12:28.467Z,30.47
2019-05-01T05:15:00.231Z,32.67
2019-05-01T05:17:29.926Z,32.60
2019-05-01T05:19:59.700Z,32.53
2019-05-01T05:22:30.359Z,32.70
2019-05-01T05:25:00.041Z,33.40
2019-05-01T05:27:30.219Z,31.70
2019-05-01T05:29:59.972Z,32.57
2019-05-01T05:32:30.225Z,34.63
2019-05-01T05:35:06.467Z,33.70
2019-05-01T05:37:42.521Z,34.53
2019-05-01T05:40:12.170Z,33.30
2019-05-01T05:42:41.701Z,33.23
2019-05-01T05:45:11.295Z,34.23
2019-05-01T05:47:40.869Z,34.93
2019-05-01T05:50:12.099Z,34.30
2019-05-01T05:52:53.813Z,33.63
2019-05-01T05:55:39.123Z,32.07
2019-05-01T05:58:13.259Z,31.10
2019-05-01T06:00:46.084Z,30.53
2019-05-01T06:03:35.886Z,30.93
2019-05-01T06:06:14.713Z,31.60
2019-05-01T06:08:46.739Z,32.50
2019-05-01T06:11:36.985Z,30.93
2019-05-01T06:14:13.310Z,30.43
2019-05-01T06:16:56.351Z,30.23
2019-05-01T06:19:39.990Z,28.43
2019-05-01T06:22:21.316Z,30.13
2019-05-01T06:24:58.497Z,27.73
2019-05-01T06:27:29.158Z,27.03
2019-05-01T06:30:00.960Z,23.10
2019-05-01T06:32:33.581Z,23.00
2019-05-01T06:35:03.190Z,22.70
2019-05-01T06:37:51.209Z,22.10
2019-05-01T06:40:23.602Z,23.13
2019-05-01T06:42:53.416Z,22.63
2019-05-01T06:45:24.558Z,22.13
2019-05-01T06:47:58.707Z,22.50
2019-05-01T06:50:37.115Z,22.13
2019-05-01T06:53:06.170Z,21.03
2019-05-01T06:55:36.602Z,22.20
2019-05-01T06:58:06.706Z,23.53
2019-05-01T07:00:39.109Z,21.73
2019-05-01T07:03:11.545Z,21.33
2019-05-01T07:05:44.463Z,19.63
2019-05-01T07:08:23.985Z,20.30
2019-05-01T07:10:45.909Z,20.10
2019-05-01T07:13:15.782Z,19.30
2019-05-01T07:15:45.681Z,20.63
2019-05-01T07:18:18.765Z,20.37
2019-05-01T07:20:51.890Z,19.90
2019-05-01T07:23:22.872Z,18.43
2019-05-01T07:25:52.597Z,19.00
2019-05-01T07:28:23.094Z,17.50
2019-05-01T07:30:55.107Z,17.60
2019-05-01T07:33:25.591Z,16.60
2019-05-01T07:35:55.155Z,16.50
2019-05-01T07:38:24.749Z,17.43
2019-05-01T07:40:54.579Z,16.43
2019-05-01T07:43:42.485Z,16.97
2019-05-01T07:46:18.229Z,15.47
2019-05-01T07:48:45.943Z,16.03
2019-05-01T07:51:15.607Z,16.53
2019-05-01T07:53:45.603Z,17.17
2019-05-01T07:56:17.252Z,17.53
2019-05-01T07:58:51.992Z,16.90
2019-05-01T08:01:26.977Z,16.60
2019-05-01T08:03:56.483Z,17.27
2019-05-01T08:06:26.423Z,16.73
2019-05-01T08:08:55.862Z,17.37
2019-05-01T08:11:25.387Z,17.70
2019-05-01T08:14:01.507Z,16.43
2019-05-01T08:16:26.004Z,15.73
2019-05-01T08:18:59.160Z,15.30
2019-05-01T08:21:30.057Z,17.77
2019-05-01T08:23:59.486Z,71.53
2019-05-01T08:26:29.017Z,18.93
2019-05-01T08:29:06.575Z,16.27
2019-05-01T08:31:52.186Z,15.73
2019-05-01T08:34:33.611Z,15.67
2019-05-01T08:37:03.061Z,15.63
2019-05-01T08:39:32.492Z,16.10
2019-05-01T08:42:03.006Z,15.97
2019-05-01T08:44:34.708Z,16.93
2019-05-01T08:47:25.804Z,14.50
2019-05-01T08:49:55.154Z,16.70
2019-05-01T08:52:26.329Z,16.50
2019-05-01T08:54:55.833Z,16.73
2019-05-01T08:57:29.266Z,15.33
2019-05-01T09:00:00.272Z,17.20
2019-05-01T09:02:28.155Z,17.43
2019-05-01T09:05:02.597Z,17.53
2019-05-01T09:07:28.826Z,17.33
2019-05-01T09:09:58.332Z,17.17
2019-05-01T09:12:27.811Z,16.80
2019-05-01T09:14:57.248Z,16.77
2019-05-01T09:17:26.701Z,16.70
2019-05-01T09:19:56.152Z,19.13
2019-05-01T09:22:27.372Z,19.23
2019-05-01T09:25:00.047Z,17.97
2019-05-01T09:27:31.175Z,18.07
2019-05-01T09:30:21.991Z,19.30
2019-05-01T09:32:54.623Z,16.90
2019-05-01T09:35:23.025Z,19.50
2019-05-01T09:37:52.615Z,20.03
2019-05-01T09:40:25.697Z,20.10
2019-05-01T09:42:59.440Z,20.67
2019-05-01T09:45:26.384Z,19.33
2019-05-01T09:47:58.668Z,21.27
2019-05-01T09:50:30.447Z,19.27
2019-05-01T09:53:07.196Z,20.67
2019-05-01T09:55:38.340Z,20.03
2019-05-01T09:58:08.015Z,20.97
2019-05-01T10:00:37.693Z,21.13
2019-05-01T10:03:07.343Z,18.90
2019-05-01T10:05:37.969Z,21.03
2019-05-01T10:08:08.010Z,20.10
2019-05-01T10:10:37.437Z,20.43
2019-05-01T10:13:07.953Z,19.53
2019-05-01T10:15:37.520Z,18.90
2019-05-01T10:18:09.083Z,18.20
2019-05-01T10:20:45.701Z,17.90
2019-05-01T10:23:16.612Z,17.80
2019-05-01T10:25:49.754Z,17.70
2019-05-01T10:28:20.972Z,18.47
2019-05-01T10:31:11.868Z,17.13
2019-05-01T10:33:50.312Z,16.47
2019-05-01T10:36:25.238Z,20.47
2019-05-01T10:38:54.790Z,18.10
2019-05-01T10:41:27.272Z,18.53
2019-05-01T10:43:56.833Z,18.40
2019-05-01T10:46:26.286Z,18.47
2019-05-01T10:48:57.415Z,17.83
2019-05-01T10:51:28.640Z,17.63
2019-05-01T10:54:00.565Z,18.47
2019-05-01T10:56:30.159Z,17.63
2019-05-01T10:58:59.735Z,18.17
2019-05-01T11:01:31.056Z,18.05
2019-05-01T11:04:00.575Z,18.93
2019-05-01T11:06:30.145Z,18.20
2019-05-01T11:08:59.610Z,18.10
2019-05-01T11:11:29.136Z,17.37
2019-05-01T11:13:58.662Z,17.67
2019-05-01T11:16:28.124Z,17.73
2019-05-01T11:18:57.629Z,18.00
2019-05-01T11:21:30.217Z,18.10
2019-05-01T11:23:59.640Z,19.07
2019-05-01T11:26:29.163Z,18.20
2019-05-01T11:28:58.658Z,16.17
2019-05-01T11:31:48.871Z,15.60
2019-05-01T11:34:29.281Z,16.42
2019-05-01T11:37:16.660Z,15.65
2019-05-01T11:39:59.954Z,15.85
2019-05-01T11:42:29.543Z,16.90
2019-05-01T11:45:00.583Z,16.42
2019-05-01T11:47:30.035Z,16.62
2019-05-01T11:49:59.471Z,17.23
2019-05-01T11:52:29.109Z,15.45
2019-05-01T11:54:58.549Z,14.93
2019-05-01T11:57:28.008Z,14.20
2019-05-01T11:59:57.525Z,15.80
2019-05-01T12:02:27.705Z,14.87
2019-05-01T12:04:57.198Z,14.28
2019-05-01T12:07:26.655Z,14.28
2019-05-01T12:09:56.161Z,14.65
2019-05-01T12:12:27.272Z,14.93
2019-05-01T12:14:56.703Z,13.68
2019-05-01T12:17:28.944Z,15.13
2019-05-01T12:19:58.373Z,15.80
2019-05-01T12:22:27.915Z,14.75
2019-05-01T12:24:58.408Z,14.50
2019-05-01T12:27:27.842Z,15.65
2019-05-01T12:29:57.310Z,15.50
2019-05-01T12:32:26.762Z,15.58
2019-05-01T12:34:56.209Z,14.65
2019-05-01T12:37:27.300Z,15.43
2019-05-01T12:39:56.736Z,13.80
2019-05-01T12:42:27.915Z,15.20
2019-05-01T12:44:57.441Z,15.20
2019-05-01T12:47:40.716Z,16.15
2019-05-01T12:50:10.580Z,17.30
2019-05-01T12:52:44.634Z,15.40
2019-05-01T12:55:31.232Z,15.70
2019-05-01T12:58:00.830Z,16.42
2019-05-01T13:00:55.794Z,16.00
2019-05-01T13:03:25.253Z,16.17
2019-05-01T13:05:54.709Z,17.95
2019-05-01T13:08:26.566Z,17.27
2019-05-01T13:10:56.346Z,20.20
2019-05-01T13:13:25.856Z,19.55
2019-05-01T13:15:55.957Z,20.00
2019-05-01T13:18:27.637Z,16.30
2019-05-01T13:20:57.097Z,17.60
2019-05-01T13:23:26.596Z,37.93
2019-05-01T13:25:57.764Z,19.23
2019-05-01T13:28:34.514Z,17.45
2019-05-01T13:31:11.690Z,19.00
2019-05-01T13:33:43.987Z,18.57
2019-05-01T13:36:13.716Z,17.87
2019-05-01T13:38:43.286Z,18.67
2019-05-01T13:41:14.250Z,18.23
2019-05-01T13:43:44.211Z,19.05
2019-05-01T13:46:13.675Z,18.73
2019-05-01T13:48:43.165Z,19.02
2019-05-01T13:51:12.612Z,18.55
2019-05-01T13:53:42.061Z,18.82
2019-05-01T13:56:11.688Z,18.95
2019-05-01T13:58:42.667Z,19.45
2019-05-01T14:01:12.689Z,18.92
2019-05-01T14:03:42.971Z,18.32
2019-05-01T14:06:12.493Z,18.30
2019-05-01T14:08:42.150Z,18.65
2019-05-01T14:11:11.609Z,19.15
2019-05-01T14:13:41.255Z,19.35
2019-05-01T14:16:10.844Z,18.95
2019-05-01T14:18:42.709Z,17.52
2019-05-01T14:21:20.029Z,19.12
2019-05-01T14:23:51.096Z,18.70
2019-05-01T14:26:20.547Z,17.27
2019-05-01T14:28:49.987Z,18.57
2019-05-01T14:31:19.420Z,18.10
2019-05-01T14:33:49.933Z,17.73
2019-05-01T14:36:20.964Z,18.17
2019-05-01T14:38:50.430Z,19.25
2019-05-01T14:41:22.683Z,18.27
2019-05-01T14:43:52.135Z,18.27
2019-05-01T14:46:21.563Z,18.35
2019-05-01T14:48:51.019Z,19.00
2019-05-01T14:51:21.824Z,19.45
2019-05-01T14:53:51.477Z,18.40
2019-05-01T14:56:20.986Z,19.35
2019-05-01T14:58:50.506Z,19.10
2019-05-01T15:01:20.057Z,18.35
2019-05-01T15:03:51.602Z,18.30
2019-05-01T15:06:21.183Z,18.30
2019-05-01T15:08:50.648Z,17.82
2019-05-01T15:11:22.799Z,18.05
2019-05-01T15:13:54.040Z,17.70
2019-05-01T15:16:41.051Z,17.90
2019-05-01T15:19:18.122Z,18.05
2019-05-01T15:21:50.405Z,18.17
2019-05-01T15:24:19.831Z,17.25
2019-05-01T15:26:51.386Z,18.40
2019-05-01T15:29:20.491Z,18.82
2019-05-01T15:31:49.930Z,18.32
2019-05-01T15:34:19.396Z,17.27
2019-05-01T15:36:48.831Z,19.35
2019-05-01T15:39:19.916Z,17.95
2019-05-01T15:42:06.386Z,19.52
2019-05-01T15:44:40.304Z,18.82
2019-05-01T15:47:09.826Z,18.70
2019-05-01T15:49:39.334Z,19.25
2019-05-01T15:52:08.788Z,18.62
2019-05-01T15:54:38.301Z,18.73
2019-05-01T15:57:07.740Z,19.70
2019-05-01T15:59:37.186Z,19.45
2019-05-01T16:02:09.182Z,20.30
2019-05-01T16:04:40.254Z,19.92
2019-05-01T16:07:09.704Z,19.12
2019-05-01T16:09:40.845Z,20.68
2019-05-01T16:12:27.055Z,21.15
2019-05-01T16:14:56.595Z,20.88
2019-05-01T16:17:26.397Z,19.30
2019-05-01T16:19:58.395Z,20.88
2019-05-01T16:22:27.841Z,20.55
2019-05-01T16:24:57.390Z,20.92
2019-05-01T16:27:26.818Z,21.50
2019-05-01T16:29:56.278Z,21.15
2019-05-01T16:32:25.809Z,19.17
2019-05-01T16:34:55.319Z,20.92
2019-05-01T16:37:24.848Z,20.65
2019-05-01T16:39:58.967Z,19.85
2019-05-01T16:42:30.127Z,19.90
2019-05-01T16:44:59.857Z,21.07
2019-05-01T16:47:29.286Z,23.52
2019-05-01T16:49:58.824Z,21.25
2019-05-01T16:52:29.838Z,19.57
2019-05-01T16:55:00.539Z,22.58
2019-05-01T16:57:31.539Z,21.17
2019-05-01T17:00:02.624Z,21.40
2019-05-01T17:02:47.763Z,20.85
2019-05-01T17:05:19.439Z,21.23
2019-05-01T17:08:07.036Z,22.55
2019-05-01T17:10:47.274Z,20.70
2019-05-01T17:13:17.273Z,21.47
2019-05-01T17:15:48.336Z,21.82
2019-05-01T17:18:18.134Z,21.53
2019-05-01T17:20:50.312Z,20.95
2019-05-01T17:23:19.994Z,20.83
2019-05-01T17:25:51.883Z,22.33
2019-05-01T17:28:21.454Z,21.33
2019-05-01T17:30:53.000Z,21.70
2019-05-01T17:33:22.457Z,21.07
2019-05-01T17:35:55.352Z,21.30
2019-05-01T17:38:27.740Z,21.80
2019-05-01T17:40:58.792Z,21.47
2019-05-01T17:43:29.943Z,21.63
2019-05-01T17:45:59.379Z,21.40
2019-05-01T17:48:34.894Z,21.57
2019-05-01T17:51:04.582Z,22.00
2019-05-01T17:53:34.041Z,20.93
2019-05-01T17:56:09.976Z,20.93
2019-05-01T17:58:40.382Z,21.80
2019-05-01T18:01:33.098Z,20.07
2019-05-01T18:04:00.902Z,20.97
2019-05-01T18:06:31.978Z,20.70
2019-05-01T18:09:03.282Z,20.57
2019-05-01T18:11:34.068Z,19.80
2019-05-01T18:14:05.710Z,20.27
2019-05-01T18:16:34.973Z,20.13
2019-05-01T18:19:09.836Z,20.23
2019-05-01T18:21:38.680Z,20.80
2019-05-01T18:24:23.038Z,19.87
2019-05-01T18:27:00.393Z,19.43
2019-05-01T18:29:39.759Z,18.20
2019-05-01T18:32:10.232Z,19.83
2019-05-01T18:34:39.658Z,19.03
2019-05-01T18:37:12.365Z,18.33
2019-05-01T18:39:46.507Z,17.93
2019-05-01T18:42:17.526Z,19.27
2019-05-01T18:44:48.749Z,17.10
2019-05-01T18:47:18.426Z,17.17
2019-05-01T18:49:48.071Z,17.50
2019-05-01T18:52:20.300Z,19.90
2019-05-01T18:54:49.750Z,18.57
2019-05-01T18:57:19.279Z,18.97
2019-05-01T18:59:48.881Z,19.13
2019-05-01T19:02:20.414Z,19.43
2019-05-01T19:04:49.629Z,18.40
2019-05-01T19:07:19.545Z,18.43
2019-05-01T19:09:49.218Z,19.57
2019-05-01T19:12:20.209Z,19.70
2019-05-01T19:14:49.734Z,20.63
2019-05-01T19:17:19.171Z,19.67
2019-05-01T19:19:52.053Z,19.73
2019-05-01T19:22:21.739Z,20.00
2019-05-01T19:24:51.272Z,20.00
2019-05-01T19:27:22.772Z,20.13
2019-05-01T19:29:52.131Z,20.07
2019-05-01T19:32:22.079Z,19.90
2019-05-01T19:34:54.630Z,20.43
2019-05-01T19:37:27.489Z,19.80
2019-05-01T19:39:55.549Z,19.63
2019-05-01T19:42:25.950Z,19.73
2019-05-01T19:44:56.259Z,20.43
2019-05-01T19:47:26.581Z,18.67
2019-05-01T19:49:56.153Z,19.03
2019-05-01T19:52:25.677Z,20.17
2019-05-01T19:54:55.267Z,19.17
2019-05-01T19:57:24.692Z,20.50
2019-05-01T19:59:54.123Z,18.70
2019-05-01T20:02:24.065Z,19.10
2019-05-01T20:04:53.642Z,19.37
2019-05-01T20:07:23.168Z,18.53
2019-05-01T20:09:56.998Z,18.80
2019-05-01T20:12:24.025Z,19.40
2019-05-01T20:14:53.472Z,19.20
2019-05-01T20:17:22.907Z,19.97
2019-05-01T20:19:52.437Z,19.23
2019-05-01T20:22:21.866Z,19.30
2019-05-01T20:24:51.536Z,18.73
2019-05-01T20:27:21.224Z,19.47
2019-05-01T20:29:50.778Z,18.90
2019-05-01T20:32:25.690Z,20.10
2019-05-01T20:34:52.690Z,19.67
2019-05-01T20:37:22.584Z,19.23
2019-05-01T20:39:52.102Z,19.33
2019-05-01T20:42:21.535Z,20.00
2019-05-01T20:45:03.948Z,18.03
2019-05-01T20:47:34.427Z,20.13
2019-05-01T20:49:53.513Z,18.70
2019-05-01T20:52:22.953Z,19.77
2019-05-01T20:54:52.396Z,19.17
2019-05-01T20:57:32.594Z,20.00
2019-05-01T21:00:02.120Z,19.40
2019-05-01T21:02:33.225Z,18.83
2019-05-01T21:05:19.425Z,19.17
2019-05-01T21:08:05.393Z,19.83
2019-05-01T21:10:49.810Z,18.83
2019-05-01T21:13:07.770Z,19.40
2019-05-01T21:15:37.427Z,19.40
2019-05-01T21:18:07.816Z,18.47
2019-05-01T21:20:37.271Z,18.57
2019-05-01T21:23:10.577Z,19.60
2019-05-01T21:25:37.850Z,19.93
2019-05-01T21:28:07.609Z,20.27
2019-05-01T21:30:38.666Z,20.10
2019-05-01T21:33:11.389Z,20.93
2019-05-01T21:35:40.943Z,20.07
2019-05-01T21:38:12.195Z,20.90
2019-05-01T21:40:43.738Z,21.03
2019-05-01T21:43:13.620Z,20.93
2019-05-01T21:45:43.457Z,20.13
2019-05-01T21:48:13.448Z,21.73
2019-05-01T21:50:43.872Z,20.93
2019-05-01T21:53:16.348Z,21.20
2019-05-01T21:55:45.796Z,21.83
2019-05-01T21:58:21.050Z,22.97
2019-05-01T22:00:50.507Z,21.37
2019-05-01T22:03:21.513Z,23.40
2019-05-01T22:05:51.582Z,22.60
2019-05-01T22:08:21.174Z,22.37
2019-05-01T22:10:52.474Z,22.40
2019-05-01T22:13:24.370Z,21.97
2019-05-01T22:16:13.211Z,22.07
2019-05-01T22:18:46.996Z,22.20
2019-05-01T22:21:23.817Z,22.03
2019-05-01T22:23:57.719Z,21.50
2019-05-01T22:26:28.853Z,22.63
2019-05-01T22:28:59.938Z,21.77
2019-05-01T22:31:34.119Z,22.00
2019-05-01T22:34:05.268Z,21.70
2019-05-01T22:36:34.689Z,21.33
2019-05-01T22:39:06.104Z,21.53
2019-05-01T22:41:38.266Z,20.97
2019-05-01T22:44:07.890Z,21.77
2019-05-01T22:46:39.019Z,21.93
2019-05-01T22:49:08.460Z,22.13
2019-05-01T22:51:37.940Z,21.57
2019-05-01T22:54:07.388Z,22.47
2019-05-01T22:56:36.902Z,20.20
2019-05-01T22:59:07.906Z,20.37
2019-05-01T23:01:37.435Z,19.63
2019-05-01T23:04:07.709Z,20.53
2019-05-01T23:06:41.738Z,20.90
2019-05-01T23:09:11.221Z,21.43
2019-05-01T23:11:42.372Z,20.63
2019-05-01T23:14:13.471Z,20.73
2019-05-01T23:16:44.693Z,20.40
2019-05-01T23:19:14.113Z,20.67
2019-05-01T23:21:45.877Z,19.80
2019-05-01T23:24:15.417Z,21.53
2019-05-01T23:26:48.102Z,21.10
2019-05-01T23:29:16.047Z,20.27
2019-05-01T23:31:45.777Z,21.27
2019-05-01T23:34:15.185Z,21.63
2019-05-01T23:36:44.628Z,21.90
2019-05-01T23:39:14.768Z,22.40
2019-05-01T23:41:46.761Z,22.00
2019-05-01T23:44:15.399Z,21.10
2019-05-01T23:46:47.904Z,20.93
2019-05-01T23:49:17.396Z,21.73
2019-05-01T23:51:46.848Z,21.90
2019-05-01T23:54:16.297Z,22.30
2019-05-01T23:56:45.737Z,21.33
2019-05-01T23:59:19.936Z,21.97
